Time;durP1;ratioP1;P1;durP2;ratioP2;P2;SDS_P1;SDS_P2;PMS_P1;PMS_P2;Temp;Humidity;BMP_temperature;BMP_pressure;BME280_temperature;BME280_humidity;BME280_pressure;Samples;Min_cycle;Max_cycle;Signal;HPM_P1;HPM_P2
2022/12/20 00:00:12;;;;;;;16.30;15.50;;;;;;;-7.17;100.00;103096.94;5011743;28;20037;-65
2022/12/20 00:02:37;;;;;;;17.27;16.38;;;;;;;-7.09;100.00;103099.50;5009978;28;20056;-66
2022/12/20 00:05:03;;;;;;;17.75;16.90;;;;;;;-6.97;100.00;103102.09;5011779;28;20049;-66
2022/12/20 00:07:30;;;;;;;16.67;15.77;;;;;;;-7.00;100.00;103102.09;5011619;28;20037;-66
2022/12/20 00:09:55;;;;;;;16.30;15.50;;;;;;;-7.10;100.00;103103.81;5011857;28;20021;-65
2022/12/20 00:12:21;;;;;;;15.85;15.05;;;;;;;-7.11;100.00;103101.25;5011330;28;20022;-64
2022/12/20 00:14:46;;;;;;;15.75;14.95;;;;;;;-7.04;100.00;103090.94;5012469;28;20489;-66
2022/12/20 00:17:12;;;;;;;16.08;15.30;;;;;;;-7.03;100.00;103087.47;5011571;28;20052;-65
2022/12/20 00:19:37;;;;;;;16.27;15.48;;;;;;;-7.14;100.00;103090.91;5010557;28;20133;-65
2022/12/20 00:22:02;;;;;;;16.23;15.45;;;;;;;-7.05;100.00;103078.88;5011022;28;20080;-64
2022/12/20 00:24:28;;;;;;;16.23;15.43;;;;;;;-7.01;100.00;103077.16;5010096;28;20026;-65
2022/12/20 00:26:53;;;;;;;16.35;15.57;;;;;;;-7.01;100.00;103080.59;5010380;28;20018;-64
2022/12/20 00:29:19;;;;;;;17.52;16.52;;;;;;;-7.02;100.00;103072.84;5010093;28;20444;-66
2022/12/20 00:31:44;;;;;;;17.25;16.40;;;;;;;-7.13;100.00;103070.25;5026352;28;20034;-66
2022/12/20 00:34:10;;;;;;;16.48;15.68;;;;;;;-7.10;100.00;103057.38;5009109;28;20109;-64
2022/12/20 00:36:38;;;;;;;16.88;16.08;;;;;;;-7.14;100.00;103055.66;5011025;28;20116;-65
2022/12/20 00:39:04;;;;;;;17.42;16.58;;;;;;;-7.10;100.00;103056.53;5009814;28;20029;-65
2022/12/20 00:41:32;;;;;;;17.60;16.70;;;;;;;-7.24;100.00;103059.94;5012635;28;20065;-65
2022/12/20 00:43:57;;;;;;;16.20;15.40;;;;;;;-7.20;100.00;103053.06;5014795;28;20018;-65
2022/12/20 00:46:24;;;;;;;17.27;16.38;;;;;;;-7.11;100.00;103058.25;5014661;28;20432;-66
2022/12/20 00:48:51;;;;;;;18.33;17.40;;;;;;;-7.09;100.00;103073.72;5014874;28;20028;-65
2022/12/20 00:51:19;;;;;;;16.58;15.77;;;;;;;-7.11;100.00;103059.97;5013659;28;20032;-65
2022/12/20 00:53:45;;;;;;;16.83;16.02;;;;;;;-7.06;100.00;103060.81;5011979;28;20556;-65
2022/12/20 00:56:12;;;;;;;16.35;15.55;;;;;;;-7.13;100.00;103059.94;5016612;28;20029;-65
2022/12/20 00:58:40;;;;;;;18.15;17.20;;;;;;;-7.10;100.00;103053.94;5029808;28;20032;-64
2022/12/20 01:01:17;;;;;;;16.15;15.35;;;;;;;-7.22;100.00;103041.03;5014679;28;20053;-65
2022/12/20 01:03:43;;;;;;;16.63;15.75;;;;;;;-7.16;100.00;103052.22;5013356;28;20064;-65
2022/12/20 01:06:09;;;;;;;16.83;16.02;;;;;;;-7.12;100.00;103045.31;5014704;28;20045;-65
2022/12/20 01:08:34;;;;;;;18.02;17.13;;;;;;;-7.19;100.00;103047.06;5011403;28;20050;-65
2022/12/20 01:11:05;;;;;;;17.08;16.17;;;;;;;-7.17;100.00;103027.28;5010645;28;20450;-65
2022/12/20 01:13:33;;;;;;;18.38;17.38;;;;;;;-7.25;100.00;103024.72;5012311;28;20034;-65
2022/12/20 01:16:04;;;;;;;17.50;16.65;;;;;;;-7.24;100.00;103016.09;5012889;28;20030;-65
2022/12/20 01:18:30;;;;;;;18.20;17.30;;;;;;;-7.40;100.00;102995.50;5014116;28;20022;-66
2022/12/20 01:21:10;;;;;;;19.40;18.40;;;;;;;-7.40;100.00;103005.81;5014297;28;20022;-66
2022/12/20 01:23:36;;;;;;;18.10;17.20;;;;;;;-7.45;100.00;103007.50;5011697;28;20034;-66
2022/12/20 01:26:08;;;;;;;19.35;18.45;;;;;;;-7.38;100.00;103017.81;5011839;28;20026;-65
2022/12/20 01:28:34;;;;;;;17.80;16.90;;;;;;;-7.41;100.00;103023.00;5013753;28;20032;-65
2022/12/20 01:31:00;;;;;;;17.33;16.42;;;;;;;-7.30;100.00;103010.94;5015706;28;20485;-66
2022/12/20 01:33:25;;;;;;;17.45;16.65;;;;;;;-7.36;100.00;102992.88;5013589;28;20037;-66
2022/12/20 01:35:59;;;;;;;17.65;16.75;;;;;;;-7.33;100.00;102999.78;5013855;28;20037;-66
2022/12/20 01:38:25;;;;;;;19.02;18.05;;;;;;;-7.28;100.00;102998.91;5012445;28;20021;-66
2022/12/20 01:40:51;;;;;;;19.75;18.77;;;;;;;-7.45;100.00;102985.16;5013154;28;20037;-66
2022/12/20 01:43:17;;;;;;;20.48;19.48;;;;;;;-7.45;100.00;102989.47;5014000;28;20026;-66
2022/12/20 01:45:43;;;;;;;17.52;16.63;;;;;;;-7.32;100.00;103001.50;5014057;28;20056;-66
2022/12/20 01:48:10;;;;;;;17.67;16.88;;;;;;;-7.20;100.00;103004.06;5013218;28;20065;-66
2022/12/20 01:50:36;;;;;;;17.48;16.60;;;;;;;-7.11;100.00;103001.50;5028839;28;20030;-64
2022/12/20 01:53:04;;;;;;;16.95;16.15;;;;;;;-7.22;100.00;102985.16;5014226;28;20054;-66
2022/12/20 01:55:31;;;;;;;18.80;17.77;;;;;;;-7.30;100.00;102984.31;5011711;28;20044;-65
2022/12/20 01:58:02;;;;;;;16.90;16.10;;;;;;;-7.23;100.00;102986.03;5013779;28;20455;-66
2022/12/20 02:00:28;;;;;;;18.95;18.00;;;;;;;-7.34;100.00;102969.72;5012609;28;20083;-64
2022/12/20 02:02:57;;;;;;;18.08;17.17;;;;;;;-7.29;100.00;102978.28;5015042;28;20033;-64
2022/12/20 02:05:23;;;;;;;17.95;17.00;;;;;;;-7.33;100.00;102974.84;5012548;28;20029;-66
2022/12/20 02:07:52;;;;;;;18.05;17.15;;;;;;;-7.35;100.00;102962.81;5013476;28;20033;-64
2022/12/20 02:10:19;;;;;;;19.48;18.55;;;;;;;-7.47;100.00;102955.94;5013110;28;20059;-64
2022/12/20 02:12:46;;;;;;;17.33;16.52;;;;;;;-7.45;100.00;102959.38;5011607;28;20029;-65
2022/12/20 02:15:18;;;;;;;17.85;16.95;;;;;;;-7.50;100.00;102948.19;5013832;28;20033;-65
2022/12/20 02:17:47;;;;;;;18.17;17.27;;;;;;;-7.54;100.00;102946.50;5013326;28;20392;-65
2022/12/20 02:20:22;;;;;;;18.98;17.98;;;;;;;-7.55;100.00;102939.63;5013719;28;20049;-65
2022/12/20 02:23:15;;;;;;;20.77;19.67;;;;;;;-7.48;100.00;102923.31;5009674;28;20409;-66
2022/12/20 02:25:59;;;;;;;19.25;18.25;;;;;;;-7.44;100.00;102919.84;5009747;28;20033;-66
2022/12/20 02:29:11;;;;;;;18.52;17.63;;;;;;;-7.36;100.00;102912.97;5012084;28;20026;-65
2022/12/20 02:31:46;;;;;;;19.15;18.25;;;;;;;-7.37;100.00;102908.66;5008191;28;20041;-65
2022/12/20 02:34:14;;;;;;;18.35;17.45;;;;;;;-7.33;100.00;102902.66;5011546;28;20488;-64
2022/12/20 02:36:39;;;;;;;17.85;16.95;;;;;;;-7.36;100.00;102906.94;5012448;28;20101;-64
2022/12/20 02:39:05;;;;;;;17.63;16.73;;;;;;;-7.31;100.00;102892.34;5011476;28;20108;-65
2022/12/20 02:41:43;;;;;;;17.63;16.73;;;;;;;-7.31;100.00;102897.50;5012645;28;20040;-66
2022/12/20 02:47:06;;;;;;;18.05;17.15;;;;;;;-7.39;100.00;102863.13;5010117;28;20100;-67
2022/12/20 02:49:37;;;;;;;18.38;17.45;;;;;;;-7.34;100.00;102876.88;5012543;28;20029;-66
2022/12/20 02:52:05;;;;;;;17.55;16.75;;;;;;;-7.34;100.00;102861.41;5012880;28;20100;-65
2022/12/20 02:54:31;;;;;;;17.48;16.60;;;;;;;-7.44;100.00;102849.38;5012366;28;20417;-66
2022/12/20 02:57:07;;;;;;;18.92;18.00;;;;;;;-7.41;100.00;102845.09;5010744;28;20050;-65
2022/12/20 02:59:40;;;;;;;18.20;17.23;;;;;;;-7.41;100.00;102841.66;5012472;28;20022;-66
2022/12/20 03:02:07;;;;;;;18.38;17.45;;;;;;;-7.49;100.00;102830.47;5012105;28;20026;-65
2022/12/20 03:04:38;;;;;;;17.88;16.98;;;;;;;-7.31;100.00;102838.19;5009396;28;20496;-64
2022/12/20 03:07:11;;;;;;;18.35;17.45;;;;;;;-7.37;100.00;102831.31;5012274;28;20032;-64
2022/12/20 03:09:38;;;;;;;18.52;17.63;;;;;;;-6.44;100.00;102823.19;5012098;28;20056;-64
2022/12/20 03:12:05;;;;;;;17.50;16.63;;;;;;;-7.13;100.00;102814.91;5014806;28;20034;-65
2022/12/20 03:14:31;;;;;;;17.92;17.02;;;;;;;-7.03;100.00;102816.59;5012117;28;20022;-65
2022/12/20 03:16:57;;;;;;;17.35;16.45;;;;;;;-6.87;100.00;102819.13;5012199;28;20021;-64
2022/12/20 03:19:23;;;;;;;16.75;15.95;;;;;;;-6.79;100.00;102818.22;5012010;28;20033;-66
2022/12/20 03:21:49;;;;;;;16.55;15.75;;;;;;;-6.78;100.00;102804.44;5011056;28;20420;-65
2022/12/20 03:24:15;;;;;;;16.30;15.50;;;;;;;-6.79;100.00;102807.03;5012092;28;20029;-66
2022/12/20 03:26:40;;;;;;;16.80;16.00;;;;;;;-6.86;100.00;102821.69;5011273;28;20017;-66
2022/12/20 03:29:06;;;;;;;16.75;15.95;;;;;;;-6.78;100.00;102811.31;5011908;28;20076;-65
2022/12/20 03:31:32;;;;;;;16.88;15.98;;;;;;;-6.54;100.00;102800.00;5011729;28;20026;-70
2022/12/20 03:33:57;;;;;;;15.68;14.90;;;;;;;-6.60;100.00;102785.41;5011967;28;20034;-66
2022/12/20 03:36:23;;;;;;;16.25;15.40;;;;;;;-6.61;100.00;102806.94;5010338;28;20476;-66
2022/12/20 03:38:52;;;;;;;15.45;14.65;;;;;;;-6.92;100.00;102795.91;5012332;28;20449;-65
2022/12/20 03:41:20;;;;;;;16.38;15.48;;;;;;;-6.40;100.00;102804.19;5011430;28;20057;-65
2022/12/20 03:43:46;;;;;;;15.98;15.15;;;;;;;-6.71;100.00;102793.22;5011887;28;20026;-65
2022/12/20 03:46:12;;;;;;;15.77;14.98;;;;;;;-6.70;100.00;102796.66;5011569;28;20030;-65
2022/12/20 03:48:37;;;;;;;15.57;14.77;;;;;;;-6.49;100.00;102817.19;5011676;28;20105;-66
2022/12/20 03:51:04;;;;;;;14.90;14.20;;;;;;;-6.04;100.00;102797.03;5011918;28;20060;-66
2022/12/20 03:53:30;;;;;;;15.15;14.35;;;;;;;-6.49;100.00;102800.81;5011361;28;20057;-65
2022/12/20 03:55:55;;;;;;;14.70;14.00;;;;;;;-6.67;100.00;102788.91;5011867;28;20018;-65
2022/12/20 03:58:21;;;;;;;15.20;14.45;;;;;;;-6.70;100.00;102801.81;5011719;28;20057;-66
2022/12/20 04:00:46;;;;;;;15.20;14.50;;;;;;;-6.57;100.00;102777.66;5010068;28;20026;-65
2022/12/20 04:03:12;;;;;;;15.23;14.52;;;;;;;-6.31;100.00;102774.88;5012191;28;20041;-65
2022/12/20 04:05:38;;;;;;;16.38;15.43;;;;;;;-6.27;100.00;102773.97;5007638;28;20022;-66
2022/12/20 04:08:03;;;;;;;15.65;14.85;;;;;;;-6.35;100.00;102778.34;5007330;28;20193;-65
2022/12/20 04:10:29;;;;;;;15.95;15.15;;;;;;;-6.44;100.00;102768.09;5011527;28;20037;-65
2022/12/20 04:12:54;;;;;;;14.40;13.70;;;;;;;-6.52;100.00;102762.13;5012288;28;20030;-65
2022/12/20 04:15:20;;;;;;;15.30;14.55;;;;;;;-6.58;100.00;102781.09;5011624;28;20473;-65
2022/12/20 04:17:45;;;;;;;15.45;14.65;;;;;;;-6.61;100.00;102778.56;5014446;28;20500;-66
2022/12/20 04:20:20;;;;;;;14.80;14.10;;;;;;;-6.48;100.00;102775.00;5030121;28;20037;-65
2022/12/20 04:22:50;;;;;;;14.77;14.07;;;;;;;-6.59;100.00;102778.53;5013095;28;20120;-66
2022/12/20 04:25:18;;;;;;;15.35;14.55;;;;;;;-6.79;100.00;102771.75;5014707;28;20554;-65
2022/12/20 04:27:44;;;;;;;16.15;15.35;;;;;;;-6.78;100.00;102770.03;5009957;28;20068;-65
2022/12/20 04:30:10;;;;;;;16.25;15.45;;;;;;;-6.80;100.00;102757.16;5015104;28;20049;-65
2022/12/20 04:32:36;;;;;;;15.63;14.85;;;;;;;-6.86;100.00;102756.31;5014782;28;20037;-65
2022/12/20 04:35:02;;;;;;;15.30;14.60;;;;;;;-6.40;100.00;102762.03;5012355;28;20397;-65
2022/12/20 04:37:29;;;;;;;16.10;15.25;;;;;;;-6.42;100.00;102751.72;5011972;28;20029;-66
2022/12/20 04:39:55;;;;;;;16.00;15.15;;;;;;;-6.52;100.00;102744.06;5014744;28;20424;-65
2022/12/20 04:42:21;;;;;;;16.02;15.20;;;;;;;-6.46;100.00;102739.72;5028480;28;20033;-65
2022/12/20 04:44:46;;;;;;;15.07;14.38;;;;;;;-6.57;100.00;102723.44;5014867;28;20025;-65
2022/12/20 04:47:12;;;;;;;17.02;15.98;;;;;;;-6.48;100.00;102723.34;5007076;28;20021;-64
2022/12/20 04:49:37;;;;;;;15.25;14.45;;;;;;;-6.27;100.00;102711.13;5013793;28;20101;-65
2022/12/20 04:54:47;;;;;;;15.77;14.98;;;;;;;-6.25;100.00;102678.41;5009520;28;20437;-69
2022/12/20 04:57:12;;;;;;;15.48;14.68;;;;;;;-6.21;100.00;102673.19;5014550;28;20026;-65
2022/12/20 04:59:38;;;;;;;14.63;13.93;;;;;;;-5.57;100.00;102664.72;5014260;28;20092;-66
2022/12/20 05:02:04;;;;;;;14.88;14.02;;;;;;;-6.07;100.00;102664.47;5013155;28;20021;-65
2022/12/20 05:04:29;;;;;;;15.05;14.25;;;;;;;-6.23;100.00;102654.28;5013100;28;20469;-66
2022/12/20 05:06:55;;;;;;;14.63;13.93;;;;;;;-6.04;100.00;102636.84;5009348;28;20018;-65
2022/12/20 05:09:20;;;;;;;14.65;13.85;;;;;;;-6.12;100.00;102641.25;5011117;28;20104;-66
2022/12/20 05:11:46;;;;;;;14.82;14.02;;;;;;;-5.88;100.00;102628.00;5015072;28;20477;-65
2022/12/20 05:14:11;;;;;;;14.55;13.75;;;;;;;-6.13;100.00;102630.06;5012635;28;20041;-66
2022/12/20 05:16:37;;;;;;;13.82;13.13;;;;;;;-5.91;100.00;102617.75;5012496;28;20029;-66
2022/12/20 05:19:03;;;;;;;13.75;13.05;;;;;;;-5.82;100.00;102629.66;5009372;28;20030;-66
2022/12/20 05:26:57;;;;;;;13.05;12.35;;;;;;;-5.29;100.00;102631.56;5013274;28;20033;-66
2022/12/20 05:29:23;;;;;;;13.20;12.50;;;;;;;-5.02;100.00;102617.34;5012614;28;20033;-66
2022/12/20 05:31:48;;;;;;;14.73;13.85;;;;;;;-5.54;100.00;102613.81;5010510;28;20030;-66
2022/12/20 05:34:13;;;;;;;14.63;13.73;;;;;;;-4.60;100.00;102614.94;5014310;28;20486;-66
2022/12/20 05:36:39;;;;;;;12.38;11.73;;;;;;;-5.03;100.00;102604.44;5014680;28;20026;-65
2022/12/20 05:39:05;;;;;;;12.25;11.65;;;;;;;-4.82;100.00;102606.69;5015330;28;20037;-66
2022/12/20 05:41:31;;;;;;;13.50;12.73;;;;;;;-4.31;100.00;102609.25;5015307;28;20032;-67
2022/12/20 05:43:56;;;;;;;13.32;12.52;;;;;;;-4.60;100.00;102614.09;5009372;28;20033;-66
2022/12/20 05:46:22;;;;;;;12.00;11.40;;;;;;;-4.77;100.00;102609.22;5012990;28;20374;-66
2022/12/20 05:48:47;;;;;;;13.07;12.38;;;;;;;-5.18;100.00;102615.03;5013933;28;20032;-67
2022/12/20 05:51:13;;;;;;;12.98;12.20;;;;;;;-4.24;100.00;102594.44;5011047;28;20037;-67
2022/12/20 05:53:38;;;;;;;12.15;11.48;;;;;;;-4.38;100.00;102614.56;5011278;28;20046;-68
2022/12/20 05:56:04;;;;;;;12.23;11.55;;;;;;;-4.51;100.00;102591.47;5013365;28;20105;-68
2022/12/20 05:58:30;;;;;;;12.00;11.40;;;;;;;-4.03;100.00;102608.75;5011433;28;20057;-68
2022/12/20 06:00:56;;;;;;;11.95;11.35;;;;;;;-3.87;100.00;102599.75;5012082;28;20065;-68
2022/12/20 06:03:21;;;;;;;11.52;10.93;;;;;;;-4.27;100.00;102597.94;5012418;28;20038;-68
2022/12/20 06:05:47;;;;;;;11.32;10.73;;;;;;;-4.49;100.00;102586.25;5013507;28;20491;-68
2022/12/20 06:08:13;;;;;;;12.80;12.02;;;;;;;-3.81;100.00;102601.38;5013040;28;20440;-67
2022/12/20 06:10:40;;;;;;;11.70;11.07;;;;;;;-2.91;100.00;102586.34;5012662;28;20025;-67
2022/12/20 06:13:07;;;;;;;10.98;10.38;;;;;;;-2.45;100.00;102600.75;5010369;28;20454;-67
2022/12/20 06:15:34;;;;;;;12.60;11.73;;;;;;;-2.17;100.00;102612.13;5011435;28;20042;-67
2022/12/20 06:17:59;;;;;;;9.13;8.73;;;;;;;-1.72;100.00;102607.38;5014675;28;20018;-67
2022/12/20 06:20:25;;;;;;;9.18;8.68;;;;;;;-1.97;100.00;102602.03;5010678;28;20033;-68
2022/12/20 06:22:51;;;;;;;9.50;9.00;;;;;;;-1.54;100.00;102608.59;5012771;28;20124;-68
2022/12/20 06:25:17;;;;;;;9.52;9.02;;;;;;;-1.71;100.00;102609.09;5012617;28;20024;-68
2022/12/20 06:27:42;;;;;;;8.98;8.57;;;;;;;-1.06;100.00;102612.34;5012596;28;20109;-68
2022/12/20 06:30:09;;;;;;;9.55;9.05;;;;;;;-0.94;100.00;102605.00;5012656;28;20461;-69
2022/12/20 06:32:35;;;;;;;9.93;9.43;;;;;;;-0.70;100.00;102605.06;5009409;28;20025;-69
2022/12/20 06:35:00;;;;;;;9.52;9.02;;;;;;;-0.06;100.00;102602.84;5010895;28;20394;-68
2022/12/20 06:37:26;;;;;;;9.40;8.90;;;;;;;0.24;100.00;102606.94;5009962;28;20439;-68
2022/12/20 06:39:51;;;;;;;10.05;9.55;;;;;;;-0.69;100.00;102593.75;5012076;28;20037;-67
2022/12/20 06:42:17;;;;;;;9.82;9.32;;;;;;;-0.85;100.00;102598.63;5011149;28;20448;-68
2022/12/20 06:44:42;;;;;;;10.15;9.65;;;;;;;-1.79;100.00;102587.63;5012469;28;20026;-67
2022/12/20 06:47:08;;;;;;;10.43;9.93;;;;;;;-1.79;100.00;102589.41;5009587;28;20029;-67
2022/12/20 06:49:33;;;;;;;12.00;11.35;;;;;;;-2.19;100.00;102574.09;5010048;28;20029;-68
2022/12/20 06:51:59;;;;;;;11.75;11.15;;;;;;;-2.42;100.00;102587.69;5012265;28;20030;-68
2022/12/20 06:54:24;;;;;;;12.07;11.43;;;;;;;-3.35;100.00;102581.31;5009887;28;20497;-68
2022/12/20 06:56:50;;;;;;;12.10;11.50;;;;;;;-2.61;100.00;102585.56;5010937;28;20438;-67
2022/12/20 06:59:15;;;;;;;12.13;11.52;;;;;;;-2.80;100.00;102564.41;5012321;28;20026;-67
2022/12/20 07:01:41;;;;;;;12.00;11.40;;;;;;;-3.05;100.00;102563.31;5010785;28;20045;-68
2022/12/20 07:04:06;;;;;;;12.60;11.90;;;;;;;-3.48;100.00;102535.78;5010633;28;20054;-67
2022/12/20 07:06:32;;;;;;;13.18;12.38;;;;;;;-2.62;100.00;102549.25;5010031;28;20018;-67
2022/12/20 07:08:57;;;;;;;11.63;11.02;;;;;;;-2.46;100.00;102554.88;5011923;28;20141;-67
2022/12/20 07:11:23;;;;;;;12.20;11.52;;;;;;;-2.72;100.00;102558.16;5010178;28;20049;-68
2022/12/20 07:13:49;;;;;;;11.93;11.32;;;;;;;-2.80;100.00;102550.56;5012299;28;20029;-68
2022/12/20 07:16:14;;;;;;;11.40;10.80;;;;;;;-2.97;100.00;102547.56;5006331;28;20030;-68
2022/12/20 07:18:40;;;;;;;12.50;11.80;;;;;;;-3.00;100.00;102555.44;5011565;28;20072;-68
2022/12/20 07:21:06;;;;;;;11.35;10.77;;;;;;;-2.88;100.00;102555.09;5009685;28;20033;-68
2022/12/20 07:23:32;;;;;;;12.02;11.32;;;;;;;-2.82;100.00;102531.56;5006014;28;20462;-68
2022/12/20 07:25:59;;;;;;;11.57;10.98;;;;;;;-2.62;100.00;102539.72;5011071;28;20416;-66
2022/12/20 07:28:26;;;;;;;11.05;10.55;;;;;;;-2.53;100.00;102536.84;5007538;28;20034;-66
2022/12/20 07:30:52;;;;;;;11.48;10.88;;;;;;;-2.54;100.00;102527.34;5012096;28;20033;-68
2022/12/20 07:33:18;;;;;;;10.60;10.10;;;;;;;-1.95;100.00;102537.81;5010812;28;20037;-68
2022/12/20 07:35:45;;;;;;;12.13;11.43;;;;;;;-2.33;100.00;102528.53;5007195;28;20022;-69
2022/12/20 07:38:11;;;;;;;10.85;10.35;;;;;;;-1.86;100.00;102541.03;5011904;28;20030;-68
2022/12/20 07:40:41;;;;;;;10.70;10.20;;;;;;;-1.75;100.00;102544.19;5010685;28;20469;-66
2022/12/20 07:43:10;;;;;;;10.68;10.18;;;;;;;1.08;100.00;102519.16;5010886;28;20036;-68
2022/12/20 07:45:36;;;;;;;9.85;9.35;;;;;;;4.89;100.00;102533.25;5008776;28;20022;-68
2022/12/20 07:48:05;;;;;;;8.30;7.90;;;;;;;4.11;100.00;102521.91;5011274;28;20643;-67
2022/12/20 07:50:33;;;;;;;10.10;9.50;;;;;;;5.99;100.00;102531.09;4994823;28;20088;-69
2022/12/20 07:52:59;;;;;;;8.25;7.85;;;;;;;4.85;100.00;102525.66;5014969;28;20037;-70
2022/12/20 07:55:25;;;;;;;8.68;8.27;;;;;;;2.78;100.00;102523.56;5010757;28;20026;-70
2022/12/20 07:57:55;;;;;;;9.20;8.80;;;;;;;1.57;100.00;102514.44;5011853;28;20037;-70
2022/12/20 08:00:21;;;;;;;9.77;9.27;;;;;;;2.22;100.00;102515.81;5013531;28;20033;-70
2022/12/20 08:02:53;;;;;;;9.82;9.32;;;;;;;5.03;100.00;102498.28;5011844;28;20022;-70
2022/12/20 08:05:20;;;;;;;9.82;9.32;;;;;;;1.23;100.00;102494.13;5011995;28;20032;-70
2022/12/20 08:07:47;;;;;;;9.80;9.30;;;;;;;4.11;100.00;102490.41;5010075;28;20033;-72
2022/12/20 08:10:16;;;;;;;9.63;9.13;;;;;;;6.60;97.62;102493.72;5010810;28;20079;-70
2022/12/20 08:12:44;;;;;;;9.80;9.30;;;;;;;8.15;89.31;102488.34;5007854;28;20030;-70
2022/12/20 08:15:10;;;;;;;9.73;9.23;;;;;;;6.10;86.86;102486.47;5025880;28;20113;-71
2022/12/20 08:17:35;;;;;;;9.80;9.30;;;;;;;4.78;90.24;102483.09;5012318;28;20058;-68
2022/12/20 08:20:01;;;;;;;10.50;10.00;;;;;;;4.52;92.01;102476.69;5008085;28;20451;-69
2022/12/20 08:22:26;;;;;;;9.73;9.32;;;;;;;3.64;95.97;102473.72;5008892;28;20117;-69
2022/12/20 08:24:51;;;;;;;10.50;10.00;;;;;;;2.78;100.00;102467.66;5012699;28;20033;-70
2022/12/20 08:27:17;;;;;;;11.25;10.65;;;;;;;4.17;99.66;102455.03;5013565;28;20072;-70
2022/12/20 08:29:42;;;;;;;10.48;9.98;;;;;;;4.48;97.45;102458.56;5012713;28;20069;-70
2022/12/20 08:32:09;;;;;;;10.55;10.05;;;;;;;5.16;92.57;102433.47;5011145;28;20030;-70
2022/12/20 08:34:34;;;;;;;10.73;10.23;;;;;;;6.14;85.41;102451.06;5009308;28;20477;-69
2022/12/20 08:37:00;;;;;;;10.02;9.55;;;;;;;7.15;77.62;102450.47;5014370;28;20034;-67
2022/12/20 08:39:25;;;;;;;10.35;9.85;;;;;;;7.13;68.00;102430.41;5013151;28;20030;-67
2022/12/20 08:41:50;;;;;;;9.55;9.15;;;;;;;7.85;74.75;102436.72;5013385;28;20263;-68
2022/12/20 08:44:16;;;;;;;10.02;9.52;;;;;;;10.55;61.30;102432.63;5014121;28;20110;-68
2022/12/20 08:46:41;;;;;;;9.38;8.98;;;;;;;9.59;54.72;102435.97;5011618;28;20473;-70
2022/12/20 08:49:07;;;;;;;10.43;9.93;;;;;;;10.05;57.81;102429.63;5013660;28;20489;-69
2022/12/20 08:51:32;;;;;;;9.82;9.43;;;;;;;10.17;56.01;102421.50;5017358;28;20041;-68
2022/12/20 08:53:58;;;;;;;10.52;10.02;;;;;;;10.46;51.95;102421.81;5014901;28;20474;-69
2022/12/20 08:56:24;;;;;;;10.48;9.98;;;;;;;8.83;54.07;102395.97;5013949;28;20060;-71
2022/12/20 08:58:49;;;;;;;10.18;9.68;;;;;;;8.60;51.62;102409.28;5014817;28;20089;-74
2022/12/20 09:01:17;;;;;;;10.32;9.82;;;;;;;8.94;51.71;102403.06;5012207;28;20067;-69
2022/12/20 09:03:43;;;;;;;11.02;10.52;;;;;;;7.41;57.13;102409.03;5008023;28;20095;-70
2022/12/20 09:06:12;;;;;;;11.13;10.63;;;;;;;5.99;59.18;102387.03;5013487;28;20030;-72
2022/12/20 09:08:39;;;;;;;11.00;10.50;;;;;;;4.70;61.69;102381.00;5011144;28;20044;-69
2022/12/20 09:11:07;;;;;;;10.63;10.13;;;;;;;6.08;62.08;102367.16;5011345;28;20741;-72
2022/12/20 09:13:32;;;;;;;11.02;10.52;;;;;;;6.03;64.54;102374.53;5009163;28;20091;-72
2022/12/20 09:16:03;;;;;;;10.80;10.30;;;;;;;5.57;63.51;102376.56;5011985;28;20473;-71
2022/12/20 09:18:29;;;;;;;10.35;9.85;;;;;;;6.09;66.15;102384.63;5009772;28;20542;-71
2022/12/20 09:20:58;;;;;;;11.32;10.73;;;;;;;5.22;64.19;102371.75;5011882;28;20112;-70
2022/12/20 09:23:23;;;;;;;12.43;11.73;;;;;;;4.10;73.28;102370.47;5008582;28;20030;-69
2022/12/20 09:25:48;;;;;;;10.60;10.10;;;;;;;3.16;85.94;102379.22;5013133;28;20354;-69
2022/12/20 09:28:14;;;;;;;10.60;10.10;;;;;;;3.10;91.17;102370.81;5011508;28;20025;-68
2022/12/20 09:30:39;;;;;;;11.45;10.85;;;;;;;3.27;92.30;102358.50;5007893;28;20029;-69
2022/12/20 09:33:06;;;;;;;10.65;10.15;;;;;;;2.81;94.58;102344.34;5009988;28;20026;-69
2022/12/20 09:35:32;;;;;;;11.52;10.93;;;;;;;2.60;97.00;102348.94;5011789;28;20061;-69
2022/12/20 09:37:58;;;;;;;11.27;10.68;;;;;;;2.66;98.42;102337.28;5011528;28;20032;-70
2022/12/20 09:40:28;;;;;;;11.25;10.68;;;;;;;2.54;98.95;102344.00;5009770;28;20026;-68
2022/12/20 09:42:53;;;;;;;12.52;11.80;;;;;;;2.71;99.36;102348.34;5009074;28;20034;-69
2022/12/20 09:45:27;;;;;;;11.85;11.18;;;;;;;2.67;100.00;102331.97;5009697;28;20473;-69
2022/12/20 09:47:52;;;;;;;10.40;9.90;;;;;;;2.72;100.00;102335.22;5010543;28;20104;-70
2022/12/20 09:50:20;;;;;;;11.50;10.90;;;;;;;2.58;100.00;102332.44;5010609;28;20344;-69
2022/12/20 09:53:01;;;;;;;11.63;11.02;;;;;;;2.47;100.00;102334.75;5003680;28;20034;-70
2022/12/20 09:55:59;;;;;;;11.52;10.93;;;;;;;2.48;100.00;102336.44;5013035;28;20030;-71
2022/12/20 09:58:33;;;;;;;11.80;11.10;;;;;;;2.63;100.00;102295.50;5001012;28;20053;-69
2022/12/20 10:01:13;;;;;;;10.15;9.65;;;;;;;2.83;100.00;102304.94;5004492;28;20809;-68
2022/12/20 10:03:39;;;;;;;10.73;10.18;;;;;;;2.01;100.00;102326.59;5009629;28;20113;-69
2022/12/20 10:06:30;;;;;;;11.25;10.65;;;;;;;2.40;100.00;102297.53;5007610;28;20116;-68
2022/12/20 10:08:58;;;;;;;11.00;10.40;;;;;;;2.62;100.00;102292.03;5006663;28;20026;-68
2022/12/20 10:11:49;;;;;;;11.25;10.65;;;;;;;2.66;100.00;102298.84;5006900;28;20026;-69
2022/12/20 10:14:30;;;;;;;11.35;10.75;;;;;;;2.67;100.00;102276.94;5008768;28;20022;-71
2022/12/20 10:17:21;;;;;;;10.02;9.52;;;;;;;2.89;100.00;102267.94;5012304;28;20042;-70
2022/12/20 10:19:56;;;;;;;10.43;9.93;;;;;;;2.70;100.00;102266.28;5011156;28;20030;-70
2022/12/20 10:22:42;;;;;;;10.50;10.00;;;;;;;2.93;100.00;102267.66;5010482;28;20823;-69
2022/12/20 10:25:13;;;;;;;11.40;10.80;;;;;;;3.00;100.00;102255.09;5010037;28;20108;-70
2022/12/20 10:27:44;;;;;;;10.43;9.93;;;;;;;3.33;100.00;102244.53;5006272;28;20034;-68
2022/12/20 10:30:22;;;;;;;10.70;10.10;;;;;;;3.29;100.00;102227.25;5006354;28;20026;-70
2022/12/20 10:32:50;;;;;;;11.80;11.10;;;;;;;3.26;100.00;102225.66;4999213;28;20105;-71
2022/12/20 10:35:21;;;;;;;10.88;10.27;;;;;;;3.34;100.00;102212.13;5000833;28;20027;-70
2022/12/20 10:38:11;;;;;;;10.77;10.20;;;;;;;3.52;100.00;102224.16;4998605;28;20188;-71
2022/12/20 10:40:43;;;;;;;11.18;10.57;;;;;;;3.39;100.00;102210.09;5006913;28;20437;-70
2022/12/20 10:43:21;;;;;;;11.77;11.07;;;;;;;3.52;100.00;102204.97;5008359;28;20485;-69
2022/12/20 10:46:00;;;;;;;11.18;10.57;;;;;;;3.58;100.00;102204.63;5006390;28;20037;-69
2022/12/20 10:48:30;;;;;;;10.93;10.35;;;;;;;3.98;100.00;102204.94;5009214;28;20501;-70
2022/12/20 10:51:22;;;;;;;10.90;10.30;;;;;;;4.36;100.00;102192.97;5007305;28;20037;-70
2022/12/20 10:54:01;;;;;;;12.52;11.73;;;;;;;4.56;100.00;102183.84;5006432;28;20133;-70
2022/12/20 10:56:37;;;;;;;12.02;11.32;;;;;;;4.54;100.00;102195.38;5006821;28;20026;-69
2022/12/20 10:59:22;;;;;;;11.10;10.50;;;;;;;4.17;100.00;102187.13;5008012;28;20057;-69
2022/12/20 11:01:49;;;;;;;11.30;10.65;;;;;;;4.55;100.00;102176.88;4996833;28;20045;-69
2022/12/20 11:04:28;;;;;;;11.05;10.45;;;;;;;5.02;100.00;102159.06;5001231;28;20513;-69
2022/12/20 11:06:54;;;;;;;10.30;9.77;;;;;;;5.07;100.00;102154.34;5009370;28;20087;-69
2022/12/20 11:09:30;;;;;;;10.63;10.02;;;;;;;4.77;96.70;102146.63;5004536;28;20033;-69
2022/12/20 11:12:03;;;;;;;11.32;10.73;;;;;;;5.01;93.72;102145.09;5004366;28;20033;-69
2022/12/20 11:14:30;;;;;;;11.98;11.27;;;;;;;5.53;94.39;102145.13;5003573;28;20041;-69
2022/12/20 11:16:59;;;;;;;11.77;11.07;;;;;;;5.58;91.36;102138.69;5001850;28;20172;-69
2022/12/20 11:19:41;;;;;;;11.45;10.80;;;;;;;5.44;90.72;102137.00;5001853;28;20057;-69
2022/12/20 11:22:12;;;;;;;11.65;10.95;;;;;;;5.26;89.72;102131.16;5003647;28;20026;-69